sensor_id;sensor_type;location;lat;lon;timestamp;P1;durP1;ratioP1;P2;durP2;ratioP2
41466;SDS011;27205;53.690;19.948;2022-11-14T00:03:09;5.30;;;5.00;;
41466;SDS011;27205;53.690;19.948;2022-11-14T00:08:18;5.20;;;4.90;;
41466;SDS011;27205;53.690;19.948;2022-11-14T00:13:23;5.10;;;4.70;;
41466;SDS011;27205;53.690;19.948;2022-11-14T00:18:26;4.40;;;4.10;;
41466;SDS011;27205;53.690;19.948;2022-11-14T00:23:30;4.30;;;4.00;;
41466;SDS011;27205;53.690;19.948;2022-11-14T00:28:34;3.10;;;2.90;;
41466;SDS011;27205;53.690;19.948;2022-11-14T00:33:37;3.70;;;3.50;;
41466;SDS011;27205;53.690;19.948;2022-11-14T00:38:40;3.60;;;3.30;;
41466;SDS011;27205;53.690;19.948;2022-11-14T00:43:44;3.40;;;3.20;;
41466;SDS011;27205;53.690;19.948;2022-11-14T00:48:47;3.60;;;3.40;;
41466;SDS011;27205;53.690;19.948;2022-11-14T00:53:50;4.40;;;4.00;;
41466;SDS011;27205;53.690;19.948;2022-11-14T00:58:54;4.80;;;4.40;;
41466;SDS011;27205;53.690;19.948;2022-11-14T01:03:57;4.50;;;4.20;;
41466;SDS011;27205;53.690;19.948;2022-11-14T01:09:00;4.40;;;4.10;;
41466;SDS011;27205;53.690;19.948;2022-11-14T01:14:07;3.60;;;3.40;;
41466;SDS011;27205;53.690;19.948;2022-11-14T01:19:11;4.00;;;3.70;;
41466;SDS011;27205;53.690;19.948;2022-11-14T01:24:14;3.40;;;3.20;;
41466;SDS011;27205;53.690;19.948;2022-11-14T01:29:17;3.80;;;3.50;;
41466;SDS011;27205;53.690;19.948;2022-11-14T01:34:20;3.60;;;3.40;;
41466;SDS011;27205;53.690;19.948;2022-11-14T01:39:25;3.80;;;3.60;;
41466;SDS011;27205;53.690;19.948;2022-11-14T01:44:48;3.40;;;3.10;;
41466;SDS011;27205;53.690;19.948;2022-11-14T01:49:57;3.40;;;3.10;;
41466;SDS011;27205;53.690;19.948;2022-11-14T01:55:04;3.70;;;3.10;;
41466;SDS011;27205;53.690;19.948;2022-11-14T02:00:10;4.30;;;3.10;;
41466;SDS011;27205;53.690;19.948;2022-11-14T02:05:16;3.60;;;3.40;;
41466;SDS011;27205;53.690;19.948;2022-11-14T02:10:20;3.20;;;3.00;;
41466;SDS011;27205;53.690;19.948;2022-11-14T02:15:23;3.50;;;3.20;;
41466;SDS011;27205;53.690;19.948;2022-11-14T02:25:34;3.60;;;3.30;;
41466;SDS011;27205;53.690;19.948;2022-11-14T02:30:38;3.00;;;2.80;;
41466;SDS011;27205;53.690;19.948;2022-11-14T02:35:42;4.00;;;3.70;;
41466;SDS011;27205;53.690;19.948;2022-11-14T02:40:45;2.30;;;2.10;;
41466;SDS011;27205;53.690;19.948;2022-11-14T02:45:48;3.60;;;3.30;;
41466;SDS011;27205;53.690;19.948;2022-11-14T02:50:52;3.00;;;2.80;;
41466;SDS011;27205;53.690;19.948;2022-11-14T02:55:55;4.00;;;3.70;;
41466;SDS011;27205;53.690;19.948;2022-11-14T03:00:58;3.70;;;3.50;;
41466;SDS011;27205;53.690;19.948;2022-11-14T03:06:22;3.30;;;3.10;;
41466;SDS011;27205;53.690;19.948;2022-11-14T03:11:25;4.50;;;4.20;;
41466;SDS011;27205;53.690;19.948;2022-11-14T03:16:30;3.60;;;3.40;;
41466;SDS011;27205;53.690;19.948;2022-11-14T03:21:33;4.20;;;3.90;;
41466;SDS011;27205;53.690;19.948;2022-11-14T03:26:36;4.50;;;4.10;;
41466;SDS011;27205;53.690;19.948;2022-11-14T03:31:40;4.20;;;3.90;;
41466;SDS011;27205;53.690;19.948;2022-11-14T03:36:44;3.50;;;3.30;;
41466;SDS011;27205;53.690;19.948;2022-11-14T03:41:47;4.30;;;3.90;;
41466;SDS011;27205;53.690;19.948;2022-11-14T03:46:52;4.50;;;4.20;;
41466;SDS011;27205;53.690;19.948;2022-11-14T03:51:55;4.70;;;4.40;;
41466;SDS011;27205;53.690;19.948;2022-11-14T03:56:59;4.60;;;4.30;;
41466;SDS011;27205;53.690;19.948;2022-11-14T04:02:03;5.10;;;4.70;;
41466;SDS011;27205;53.690;19.948;2022-11-14T04:07:06;4.20;;;3.90;;
41466;SDS011;27205;53.690;19.948;2022-11-14T04:12:11;4.50;;;4.20;;
41466;SDS011;27205;53.690;19.948;2022-11-14T04:17:17;4.00;;;3.80;;
41466;SDS011;27205;53.690;19.948;2022-11-14T04:22:21;5.20;;;4.90;;
41466;SDS011;27205;53.690;19.948;2022-11-14T04:27:24;5.20;;;4.90;;
41466;SDS011;27205;53.690;19.948;2022-11-14T04:32:28;5.20;;;4.90;;
41466;SDS011;27205;53.690;19.948;2022-11-14T04:37:31;5.80;;;5.50;;
41466;SDS011;27205;53.690;19.948;2022-11-14T04:42:34;6.10;;;5.70;;
41466;SDS011;27205;53.690;19.948;2022-11-14T04:47:39;6.10;;;5.70;;
41466;SDS011;27205;53.690;19.948;2022-11-14T04:52:43;5.90;;;5.50;;
41466;SDS011;27205;53.690;19.948;2022-11-14T04:57:52;6.00;;;5.60;;
41466;SDS011;27205;53.690;19.948;2022-11-14T05:02:59;5.80;;;5.40;;
41466;SDS011;27205;53.690;19.948;2022-11-14T05:08:03;5.80;;;5.40;;
41466;SDS011;27205;53.690;19.948;2022-11-14T05:13:06;5.30;;;5.00;;
41466;SDS011;27205;53.690;19.948;2022-11-14T05:18:09;5.50;;;5.10;;
41466;SDS011;27205;53.690;19.948;2022-11-14T05:23:20;6.50;;;6.00;;
41466;SDS011;27205;53.690;19.948;2022-11-14T05:28:25;4.90;;;4.60;;
41466;SDS011;27205;53.690;19.948;2022-11-14T05:33:29;5.30;;;4.90;;
41466;SDS011;27205;53.690;19.948;2022-11-14T05:38:33;5.00;;;4.70;;
41466;SDS011;27205;53.690;19.948;2022-11-14T05:43:37;5.70;;;5.30;;
41466;SDS011;27205;53.690;19.948;2022-11-14T05:48:41;5.60;;;5.20;;
41466;SDS011;27205;53.690;19.948;2022-11-14T05:53:45;6.10;;;5.60;;
41466;SDS011;27205;53.690;19.948;2022-11-14T05:58:48;6.10;;;5.60;;
41466;SDS011;27205;53.690;19.948;2022-11-14T06:03:52;4.00;;;3.80;;
41466;SDS011;27205;53.690;19.948;2022-11-14T06:08:55;5.60;;;5.20;;
41466;SDS011;27205;53.690;19.948;2022-11-14T06:13:59;5.50;;;4.90;;
41466;SDS011;27205;53.690;19.948;2022-11-14T06:19:02;6.00;;;5.60;;
41466;SDS011;27205;53.690;19.948;2022-11-14T06:24:07;4.40;;;4.20;;
41466;SDS011;27205;53.690;19.948;2022-11-14T06:29:10;5.90;;;5.50;;
41466;SDS011;27205;53.690;19.948;2022-11-14T06:34:13;6.10;;;5.70;;
41466;SDS011;27205;53.690;19.948;2022-11-14T06:39:17;5.60;;;5.10;;
41466;SDS011;27205;53.690;19.948;2022-11-14T06:44:20;5.30;;;4.90;;
41466;SDS011;27205;53.690;19.948;2022-11-14T06:49:32;5.50;;;5.00;;
41466;SDS011;27205;53.690;19.948;2022-11-14T06:54:42;5.60;;;5.20;;
41466;SDS011;27205;53.690;19.948;2022-11-14T06:59:45;5.80;;;5.40;;
41466;SDS011;27205;53.690;19.948;2022-11-14T07:04:50;6.00;;;5.60;;
41466;SDS011;27205;53.690;19.948;2022-11-14T07:09:53;3.90;;;3.60;;
41466;SDS011;27205;53.690;19.948;2022-11-14T07:14:58;6.50;;;6.00;;
41466;SDS011;27205;53.690;19.948;2022-11-14T07:20:02;6.70;;;6.10;;
41466;SDS011;27205;53.690;19.948;2022-11-14T07:25:05;5.20;;;4.90;;
41466;SDS011;27205;53.690;19.948;2022-11-14T07:30:09;7.00;;;6.40;;
41466;SDS011;27205;53.690;19.948;2022-11-14T07:35:13;4.70;;;4.30;;
41466;SDS011;27205;53.690;19.948;2022-11-14T07:40:17;5.00;;;4.70;;
41466;SDS011;27205;53.690;19.948;2022-11-14T07:50:24;4.40;;;4.10;;
41466;SDS011;27205;53.690;19.948;2022-11-14T07:55:29;5.40;;;5.00;;
41466;SDS011;27205;53.690;19.948;2022-11-14T08:00:32;4.30;;;4.10;;
41466;SDS011;27205;53.690;19.948;2022-11-14T08:05:36;5.30;;;4.90;;
41466;SDS011;27205;53.690;19.948;2022-11-14T08:10:39;5.10;;;4.70;;
41466;SDS011;27205;53.690;19.948;2022-11-14T08:15:42;3.60;;;3.40;;
41466;SDS011;27205;53.690;19.948;2022-11-14T08:20:45;3.20;;;3.00;;
41466;SDS011;27205;53.690;19.948;2022-11-14T08:25:49;3.70;;;3.40;;
41466;SDS011;27205;53.690;19.948;2022-11-14T08:30:57;2.80;;;2.60;;
41466;SDS011;27205;53.690;19.948;2022-11-14T08:36:02;3.30;;;3.10;;
41466;SDS011;27205;53.690;19.948;2022-11-14T08:41:06;3.40;;;3.20;;
41466;SDS011;27205;53.690;19.948;2022-11-14T08:46:10;2.80;;;2.70;;
41466;SDS011;27205;53.690;19.948;2022-11-14T08:51:13;3.20;;;3.00;;
41466;SDS011;27205;53.690;19.948;2022-11-14T08:56:16;4.70;;;3.40;;
41466;SDS011;27205;53.690;19.948;2022-11-14T09:01:20;3.50;;;3.30;;
41466;SDS011;27205;53.690;19.948;2022-11-14T09:06:23;4.10;;;3.90;;
41466;SDS011;27205;53.690;19.948;2022-11-14T09:11:27;3.90;;;3.60;;
41466;SDS011;27205;53.690;19.948;2022-11-14T09:16:30;3.90;;;3.70;;
41466;SDS011;27205;53.690;19.948;2022-11-14T09:21:33;4.30;;;4.00;;
41466;SDS011;27205;53.690;19.948;2022-11-14T09:26:37;4.80;;;4.50;;
41466;SDS011;27205;53.690;19.948;2022-11-14T09:31:40;4.80;;;4.50;;
41466;SDS011;27205;53.690;19.948;2022-11-14T09:36:43;5.00;;;4.60;;
41466;SDS011;27205;53.690;19.948;2022-11-14T09:46:57;4.60;;;4.20;;
41466;SDS011;27205;53.690;19.948;2022-11-14T09:52:17;5.10;;;4.80;;
41466;SDS011;27205;53.690;19.948;2022-11-14T09:57:29;6.50;;;6.10;;
41466;SDS011;27205;53.690;19.948;2022-11-14T10:19:11;5.50;;;5.10;;
41466;SDS011;27205;53.690;19.948;2022-11-14T10:50:41;5.50;;;5.10;;
41466;SDS011;27205;53.690;19.948;2022-11-14T10:55:49;5.30;;;5.00;;
41466;SDS011;27205;53.690;19.948;2022-11-14T11:06:41;6.10;;;5.60;;
41466;SDS011;27205;53.690;19.948;2022-11-14T11:11:51;5.40;;;4.90;;
41466;SDS011;27205;53.690;19.948;2022-11-14T11:17:07;5.40;;;5.00;;
41466;SDS011;27205;53.690;19.948;2022-11-14T11:22:22;4.70;;;4.40;;
41466;SDS011;27205;53.690;19.948;2022-11-14T11:27:28;4.60;;;4.30;;
41466;SDS011;27205;53.690;19.948;2022-11-14T11:32:32;5.00;;;4.70;;
41466;SDS011;27205;53.690;19.948;2022-11-14T11:37:36;5.60;;;5.20;;
41466;SDS011;27205;53.690;19.948;2022-11-14T11:42:48;5.60;;;5.20;;
41466;SDS011;27205;53.690;19.948;2022-11-14T11:48:29;6.70;;;5.60;;
41466;SDS011;27205;53.690;19.948;2022-11-14T11:53:40;5.20;;;4.80;;
41466;SDS011;27205;53.690;19.948;2022-11-14T11:58:47;5.00;;;4.60;;
41466;SDS011;27205;53.690;19.948;2022-11-14T12:03:52;4.70;;;4.40;;
41466;SDS011;27205;53.690;19.948;2022-11-14T12:20:55;4.30;;;4.00;;
41466;SDS011;27205;53.690;19.948;2022-11-14T12:31:16;4.60;;;4.30;;
41466;SDS011;27205;53.690;19.948;2022-11-14T12:36:22;4.60;;;4.30;;
41466;SDS011;27205;53.690;19.948;2022-11-14T12:41:33;5.60;;;5.20;;
41466;SDS011;27205;53.690;19.948;2022-11-14T12:52:12;5.50;;;5.00;;
41466;SDS011;27205;53.690;19.948;2022-11-14T12:57:55;5.30;;;5.00;;
41466;SDS011;27205;53.690;19.948;2022-11-14T13:13:58;5.30;;;4.70;;
41466;SDS011;27205;53.690;19.948;2022-11-14T13:19:22;4.30;;;4.00;;
41466;SDS011;27205;53.690;19.948;2022-11-14T13:30:00;5.00;;;4.70;;
41466;SDS011;27205;53.690;19.948;2022-11-14T13:35:29;4.80;;;4.50;;
41466;SDS011;27205;53.690;19.948;2022-11-14T13:51:35;4.70;;;4.40;;
41466;SDS011;27205;53.690;19.948;2022-11-14T14:07:13;4.80;;;4.50;;
41466;SDS011;27205;53.690;19.948;2022-11-14T14:18:12;4.50;;;4.20;;
41466;SDS011;27205;53.690;19.948;2022-11-14T14:23:35;3.60;;;3.40;;
41466;SDS011;27205;53.690;19.948;2022-11-14T14:29:00;4.40;;;4.10;;
41466;SDS011;27205;53.690;19.948;2022-11-14T14:34:23;4.20;;;3.90;;
41466;SDS011;27205;53.690;19.948;2022-11-14T14:39:29;3.30;;;3.10;;
41466;SDS011;27205;53.690;19.948;2022-11-14T14:44:36;3.60;;;3.40;;
41466;SDS011;27205;53.690;19.948;2022-11-14T14:49:40;5.20;;;3.90;;
41466;SDS011;27205;53.690;19.948;2022-11-14T14:54:52;3.90;;;3.70;;
41466;SDS011;27205;53.690;19.948;2022-11-14T15:00:06;3.70;;;3.50;;
41466;SDS011;27205;53.690;19.948;2022-11-14T15:05:25;4.10;;;3.80;;
41466;SDS011;27205;53.690;19.948;2022-11-14T15:10:31;3.50;;;3.30;;
41466;SDS011;27205;53.690;19.948;2022-11-14T15:15:34;3.80;;;2.40;;
41466;SDS011;27205;53.690;19.948;2022-11-14T15:20:39;4.30;;;3.90;;
41466;SDS011;27205;53.690;19.948;2022-11-14T15:25:42;4.60;;;4.20;;
41466;SDS011;27205;53.690;19.948;2022-11-14T15:30:56;4.20;;;3.80;;
41466;SDS011;27205;53.690;19.948;2022-11-14T15:36:09;4.90;;;4.40;;
41466;SDS011;27205;53.690;19.948;2022-11-14T15:41:21;3.40;;;3.20;;
41466;SDS011;27205;53.690;19.948;2022-11-14T15:46:39;3.90;;;3.70;;
41466;SDS011;27205;53.690;19.948;2022-11-14T15:51:52;4.50;;;4.30;;
41466;SDS011;27205;53.690;19.948;2022-11-14T15:57:05;4.20;;;3.90;;
41466;SDS011;27205;53.690;19.948;2022-11-14T16:02:15;4.20;;;3.90;;
41466;SDS011;27205;53.690;19.948;2022-11-14T16:07:20;4.40;;;4.20;;
41466;SDS011;27205;53.690;19.948;2022-11-14T16:12:24;4.20;;;3.90;;
41466;SDS011;27205;53.690;19.948;2022-11-14T16:17:27;4.60;;;4.30;;
41466;SDS011;27205;53.690;19.948;2022-11-14T16:22:30;4.40;;;4.20;;
41466;SDS011;27205;53.690;19.948;2022-11-14T16:27:34;5.10;;;4.70;;
41466;SDS011;27205;53.690;19.948;2022-11-14T16:32:38;4.80;;;4.50;;
41466;SDS011;27205;53.690;19.948;2022-11-14T16:37:42;8.10;;;6.50;;
41466;SDS011;27205;53.690;19.948;2022-11-14T16:42:46;6.90;;;6.40;;
41466;SDS011;27205;53.690;19.948;2022-11-14T16:47:50;4.80;;;4.50;;
41466;SDS011;27205;53.690;19.948;2022-11-14T16:52:54;5.00;;;4.70;;
41466;SDS011;27205;53.690;19.948;2022-11-14T16:57:57;5.90;;;5.50;;
41466;SDS011;27205;53.690;19.948;2022-11-14T17:03:00;5.40;;;5.10;;
41466;SDS011;27205;53.690;19.948;2022-11-14T17:08:04;6.50;;;6.10;;
41466;SDS011;27205;53.690;19.948;2022-11-14T17:13:08;6.60;;;6.20;;
41466;SDS011;27205;53.690;19.948;2022-11-14T17:23:15;7.00;;;6.60;;
41466;SDS011;27205;53.690;19.948;2022-11-14T17:28:18;8.10;;;7.40;;
41466;SDS011;27205;53.690;19.948;2022-11-14T17:33:22;8.10;;;7.60;;
41466;SDS011;27205;53.690;19.948;2022-11-14T17:38:25;7.60;;;7.10;;
41466;SDS011;27205;53.690;19.948;2022-11-14T17:43:28;8.20;;;7.60;;
41466;SDS011;27205;53.690;19.948;2022-11-14T17:48:42;8.20;;;7.60;;
41466;SDS011;27205;53.690;19.948;2022-11-14T17:53:46;12.10;;;11.40;;
41466;SDS011;27205;53.690;19.948;2022-11-14T17:58:50;9.90;;;9.20;;
41466;SDS011;27205;53.690;19.948;2022-11-14T18:03:55;8.40;;;7.90;;
41466;SDS011;27205;53.690;19.948;2022-11-14T18:09:06;8.20;;;7.70;;
41466;SDS011;27205;53.690;19.948;2022-11-14T18:14:15;10.10;;;9.50;;
41466;SDS011;27205;53.690;19.948;2022-11-14T18:19:19;12.20;;;11.50;;
41466;SDS011;27205;53.690;19.948;2022-11-14T18:24:22;12.80;;;11.90;;
41466;SDS011;27205;53.690;19.948;2022-11-14T18:29:25;13.70;;;12.80;;
41466;SDS011;27205;53.690;19.948;2022-11-14T18:34:30;17.60;;;16.30;;
41466;SDS011;27205;53.690;19.948;2022-11-14T18:39:33;14.30;;;13.30;;
41466;SDS011;27205;53.690;19.948;2022-11-14T18:44:36;11.40;;;10.70;;
41466;SDS011;27205;53.690;19.948;2022-11-14T18:49:40;12.50;;;11.70;;
41466;SDS011;27205;53.690;19.948;2022-11-14T18:54:43;10.90;;;10.20;;
41466;SDS011;27205;53.690;19.948;2022-11-14T18:59:47;11.10;;;10.30;;
41466;SDS011;27205;53.690;19.948;2022-11-14T19:04:50;14.10;;;13.20;;
41466;SDS011;27205;53.690;19.948;2022-11-14T19:09:53;16.20;;;15.10;;
41466;SDS011;27205;53.690;19.948;2022-11-14T19:14:56;17.20;;;15.90;;
41466;SDS011;27205;53.690;19.948;2022-11-14T19:20:00;18.00;;;16.80;;
41466;SDS011;27205;53.690;19.948;2022-11-14T19:25:03;18.20;;;16.90;;
41466;SDS011;27205;53.690;19.948;2022-11-14T19:30:07;19.00;;;17.70;;
41466;SDS011;27205;53.690;19.948;2022-11-14T19:35:11;17.70;;;16.30;;
41466;SDS011;27205;53.690;19.948;2022-11-14T19:40:21;20.60;;;19.10;;
41466;SDS011;27205;53.690;19.948;2022-11-14T19:45:25;21.50;;;20.00;;
41466;SDS011;27205;53.690;19.948;2022-11-14T19:55:32;21.00;;;19.40;;
41466;SDS011;27205;53.690;19.948;2022-11-14T20:00:35;19.70;;;18.30;;
41466;SDS011;27205;53.690;19.948;2022-11-14T20:05:39;21.80;;;20.20;;
41466;SDS011;27205;53.690;19.948;2022-11-14T20:10:52;20.70;;;19.20;;
41466;SDS011;27205;53.690;19.948;2022-11-14T20:16:07;21.20;;;19.70;;
41466;SDS011;27205;53.690;19.948;2022-11-14T20:21:16;22.90;;;21.10;;
41466;SDS011;27205;53.690;19.948;2022-11-14T20:26:21;21.10;;;19.60;;
41466;SDS011;27205;53.690;19.948;2022-11-14T20:31:27;22.00;;;20.40;;
41466;SDS011;27205;53.690;19.948;2022-11-14T20:36:33;21.70;;;20.00;;
41466;SDS011;27205;53.690;19.948;2022-11-14T20:41:56;22.50;;;20.80;;
41466;SDS011;27205;53.690;19.948;2022-11-14T20:47:00;23.50;;;21.80;;
41466;SDS011;27205;53.690;19.948;2022-11-14T20:52:03;22.80;;;21.20;;
41466;SDS011;27205;53.690;19.948;2022-11-14T20:57:07;23.70;;;21.90;;
41466;SDS011;27205;53.690;19.948;2022-11-14T21:02:11;23.20;;;21.50;;
41466;SDS011;27205;53.690;19.948;2022-11-14T21:07:14;21.70;;;20.10;;
41466;SDS011;27205;53.690;19.948;2022-11-14T21:12:18;23.90;;;22.10;;
41466;SDS011;27205;53.690;19.948;2022-11-14T21:17:21;22.90;;;21.20;;
41466;SDS011;27205;53.690;19.948;2022-11-14T21:22:25;20.60;;;19.10;;
41466;SDS011;27205;53.690;19.948;2022-11-14T21:27:28;21.80;;;20.20;;
41466;SDS011;27205;53.690;19.948;2022-11-14T21:32:32;20.30;;;18.90;;
41466;SDS011;27205;53.690;19.948;2022-11-14T21:37:38;23.40;;;21.60;;
41466;SDS011;27205;53.690;19.948;2022-11-14T21:42:41;21.70;;;20.10;;
41466;SDS011;27205;53.690;19.948;2022-11-14T21:47:44;23.70;;;22.00;;
41466;SDS011;27205;53.690;19.948;2022-11-14T21:52:48;23.00;;;21.20;;
41466;SDS011;27205;53.690;19.948;2022-11-14T21:57:54;24.70;;;22.80;;
41466;SDS011;27205;53.690;19.948;2022-11-14T22:02:57;25.60;;;23.50;;
41466;SDS011;27205;53.690;19.948;2022-11-14T22:08:20;26.20;;;24.20;;
41466;SDS011;27205;53.690;19.948;2022-11-14T22:13:24;27.20;;;25.10;;
41466;SDS011;27205;53.690;19.948;2022-11-14T22:18:27;30.60;;;28.20;;
41466;SDS011;27205;53.690;19.948;2022-11-14T22:23:30;26.60;;;24.50;;
41466;SDS011;27205;53.690;19.948;2022-11-14T22:28:34;28.50;;;26.30;;
41466;SDS011;27205;53.690;19.948;2022-11-14T22:33:39;28.20;;;25.90;;
41466;SDS011;27205;53.690;19.948;2022-11-14T22:38:48;27.20;;;25.00;;
41466;SDS011;27205;53.690;19.948;2022-11-14T22:43:54;26.10;;;23.80;;
41466;SDS011;27205;53.690;19.948;2022-11-14T22:48:58;27.90;;;25.80;;
41466;SDS011;27205;53.690;19.948;2022-11-14T22:54:01;28.70;;;26.40;;
41466;SDS011;27205;53.690;19.948;2022-11-14T22:59:05;25.00;;;23.00;;
41466;SDS011;27205;53.690;19.948;2022-11-14T23:04:08;27.90;;;25.80;;
41466;SDS011;27205;53.690;19.948;2022-11-14T23:09:11;28.50;;;26.30;;
41466;SDS011;27205;53.690;19.948;2022-11-14T23:14:15;27.40;;;25.30;;
41466;SDS011;27205;53.690;19.948;2022-11-14T23:19:18;31.00;;;28.40;;
41466;SDS011;27205;53.690;19.948;2022-11-14T23:24:21;30.10;;;27.80;;
41466;SDS011;27205;53.690;19.948;2022-11-14T23:29:25;30.80;;;28.30;;
41466;SDS011;27205;53.690;19.948;2022-11-14T23:34:28;30.80;;;28.40;;
41466;SDS011;27205;53.690;19.948;2022-11-14T23:39:31;31.90;;;29.40;;
41466;SDS011;27205;53.690;19.948;2022-11-14T23:44:35;30.50;;;28.10;;
41466;SDS011;27205;53.690;19.948;2022-11-14T23:49:38;25.30;;;23.40;;
41466;SDS011;27205;53.690;19.948;2022-11-14T23:54:41;27.50;;;25.50;;
41466;SDS011;27205;53.690;19.948;2022-11-14T23:59:45;22.40;;;20.80;;
